sensor_id;sensor_type;location;lat;lon;timestamp;pressure;altitude;pressure_sealevel;temperature
68440;BMP180;55421;51.600;5.718;2022-12-18T00:01:25;215523.59;;;-5.30
68440;BMP180;55421;51.600;5.718;2022-12-18T00:03:53;215481.20;;;-5.40
68440;BMP180;55421;51.600;5.718;2022-12-18T00:06:22;215470.20;;;-5.40
68440;BMP180;55421;51.600;5.718;2022-12-18T00:08:49;215481.20;;;-5.40
68440;BMP180;55421;51.600;5.718;2022-12-18T00:11:19;215486.59;;;-5.40
68440;BMP180;55421;51.600;5.718;2022-12-18T00:13:47;215498.00;;;-5.40
68440;BMP180;55421;51.600;5.718;2022-12-18T00:16:18;215501.59;;;-5.40
68440;BMP180;55421;51.600;5.718;2022-12-18T00:18:51;215511.59;;;-5.34
68440;BMP180;55421;51.600;5.718;2022-12-18T00:21:19;215522.00;;;-5.30
68440;BMP180;55421;51.600;5.718;2022-12-18T00:23:48;215505.59;;;-5.38
68440;BMP180;55421;51.600;5.718;2022-12-18T00:26:22;215481.20;;;-5.40
68440;BMP180;55421;51.600;5.718;2022-12-18T00:28:50;215464.20;;;-5.40
68440;BMP180;55421;51.600;5.718;2022-12-18T00:31:22;215450.59;;;-5.50
68440;BMP180;55421;51.600;5.718;2022-12-18T00:33:49;215457.41;;;-5.42
68440;BMP180;55421;51.600;5.718;2022-12-18T00:36:25;215465.80;;;-5.40
68440;BMP180;55421;51.600;5.718;2022-12-18T00:38:55;215481.20;;;-5.40
68440;BMP180;55421;51.600;5.718;2022-12-18T00:41:22;215486.59;;;-5.40
68440;BMP180;55421;51.600;5.718;2022-12-18T00:44:11;215489.20;;;-5.40
68440;BMP180;55421;51.600;5.718;2022-12-18T00:46:38;215474.20;;;-5.40
68440;BMP180;55421;51.600;5.718;2022-12-18T00:49:08;215455.80;;;-5.48
68440;BMP180;55421;51.600;5.718;2022-12-18T00:51:34;215427.00;;;-5.50
68440;BMP180;55421;51.600;5.718;2022-12-18T00:54:01;215413.41;;;-5.50
68440;BMP180;55421;51.600;5.718;2022-12-18T00:56:28;215403.41;;;-5.54
68440;BMP180;55421;51.600;5.718;2022-12-18T00:58:54;215398.59;;;-5.56
68440;BMP180;55421;51.600;5.718;2022-12-18T01:01:21;215393.41;;;-5.60
68440;BMP180;55421;51.600;5.718;2022-12-18T01:03:47;215369.41;;;-5.60
68440;BMP180;55421;51.600;5.718;2022-12-18T01:06:16;215335.59;;;-5.70
68440;BMP180;55421;51.600;5.718;2022-12-18T01:08:43;215297.59;;;-5.70
68440;BMP180;55421;51.600;5.718;2022-12-18T01:11:14;215273.80;;;-5.80
68440;BMP180;55421;51.600;5.718;2022-12-18T01:13:42;215268.20;;;-5.80
68440;BMP180;55421;51.600;5.718;2022-12-18T01:16:12;215296.00;;;-5.70
68440;BMP180;55421;51.600;5.718;2022-12-18T01:18:39;215300.41;;;-5.70
68440;BMP180;55421;51.600;5.718;2022-12-18T01:21:09;215296.00;;;-5.70
68440;BMP180;55421;51.600;5.718;2022-12-18T01:23:36;215262.59;;;-5.80
68440;BMP180;55421;51.600;5.718;2022-12-18T01:26:08;215224.20;;;-5.88
68440;BMP180;55421;51.600;5.718;2022-12-18T01:28:36;215184.80;;;-5.90
68440;BMP180;55421;51.600;5.718;2022-12-18T01:31:19;215154.41;;;-6.00
68440;BMP180;55421;51.600;5.718;2022-12-18T01:33:46;215132.41;;;-6.00
68440;BMP180;55421;51.600;5.718;2022-12-18T01:36:23;215122.00;;;-6.08
68440;BMP180;55421;51.600;5.718;2022-12-18T01:38:51;215104.80;;;-6.10
68440;BMP180;55421;51.600;5.718;2022-12-18T01:41:26;215087.20;;;-6.10
68440;BMP180;55421;51.600;5.718;2022-12-18T01:43:56;215076.00;;;-6.10
68440;BMP180;55421;51.600;5.718;2022-12-18T01:46:27;215086.00;;;-6.10
68440;BMP180;55421;51.600;5.718;2022-12-18T01:48:58;215085.59;;;-6.10
68440;BMP180;55421;51.600;5.718;2022-12-18T01:51:27;215091.20;;;-6.10
68440;BMP180;55421;51.600;5.718;2022-12-18T01:53:57;215085.59;;;-6.10
68440;BMP180;55421;51.600;5.718;2022-12-18T01:56:24;215070.41;;;-6.12
68440;BMP180;55421;51.600;5.718;2022-12-18T01:59:01;215077.59;;;-6.10
68440;BMP180;55421;51.600;5.718;2022-12-18T02:01:31;215060.20;;;-6.16
68440;BMP180;55421;51.600;5.718;2022-12-18T02:04:27;215040.00;;;-6.20
68440;BMP180;55421;51.600;5.718;2022-12-18T02:10:03;214974.00;;;-6.30
68440;BMP180;55421;51.600;5.718;2022-12-18T02:15:40;214960.80;;;-6.30
68440;BMP180;55421;51.600;5.718;2022-12-18T02:18:24;214972.41;;;-6.30
68440;BMP180;55421;51.600;5.718;2022-12-18T02:22:02;215014.41;;;-6.28
68440;BMP180;55421;51.600;5.718;2022-12-18T02:24:37;215035.00;;;-6.20
68440;BMP180;55421;51.600;5.718;2022-12-18T02:27:07;215046.59;;;-6.20
68440;BMP180;55421;51.600;5.718;2022-12-18T02:29:39;215027.41;;;-6.20
68440;BMP180;55421;51.600;5.718;2022-12-18T02:32:17;215004.41;;;-6.30
68440;BMP180;55421;51.600;5.718;2022-12-18T02:34:46;214967.20;;;-6.30
68440;BMP180;55421;51.600;5.718;2022-12-18T02:37:16;214959.59;;;-6.38
68440;BMP180;55421;51.600;5.718;2022-12-18T02:39:47;214974.00;;;-6.30
68440;BMP180;55421;51.600;5.718;2022-12-18T02:42:17;214986.80;;;-6.30
68440;BMP180;55421;51.600;5.718;2022-12-18T02:44:48;214992.00;;;-6.30
68440;BMP180;55421;51.600;5.718;2022-12-18T02:47:20;214972.41;;;-6.30
68440;BMP180;55421;51.600;5.718;2022-12-18T02:50:18;214952.00;;;-6.40
68440;BMP180;55421;51.600;5.718;2022-12-18T02:56:17;214892.20;;;-6.50
68440;BMP180;55421;51.600;5.718;2022-12-18T02:59:02;214882.20;;;-6.50
68440;BMP180;55421;51.600;5.718;2022-12-18T03:01:42;214891.80;;;-6.50
68440;BMP180;55421;51.600;5.718;2022-12-18T03:04:20;214895.00;;;-6.46
68440;BMP180;55421;51.600;5.718;2022-12-18T03:06:54;214892.20;;;-6.50
68440;BMP180;55421;51.600;5.718;2022-12-18T03:09:46;214883.41;;;-6.50
68440;BMP180;55421;51.600;5.718;2022-12-18T03:12:22;214869.00;;;-6.50
68440;BMP180;55421;51.600;5.718;2022-12-18T03:15:12;214849.41;;;-6.50
68440;BMP180;55421;51.600;5.718;2022-12-18T03:17:52;214848.20;;;-6.50
68440;BMP180;55421;51.600;5.718;2022-12-18T03:20:23;214869.41;;;-6.50
68440;BMP180;55421;51.600;5.718;2022-12-18T03:22:57;214882.20;;;-6.50
68440;BMP180;55421;51.600;5.718;2022-12-18T03:25:28;214885.00;;;-6.50
68440;BMP180;55421;51.600;5.718;2022-12-18T03:28:00;214880.59;;;-6.50
68440;BMP180;55421;51.600;5.718;2022-12-18T03:30:30;214866.20;;;-6.50
68440;BMP180;55421;51.600;5.718;2022-12-18T03:33:26;214835.41;;;-6.58
68440;BMP180;55421;51.600;5.718;2022-12-18T03:35:54;214807.20;;;-6.60
68440;BMP180;55421;51.600;5.718;2022-12-18T03:38:21;214790.00;;;-6.66
68440;BMP180;55421;51.600;5.718;2022-12-18T03:41:18;214755.80;;;-6.70
68440;BMP180;55421;51.600;5.718;2022-12-18T03:44:04;214719.80;;;-6.78
68440;BMP180;55421;51.600;5.718;2022-12-18T03:47:11;214684.59;;;-6.82
68440;BMP180;55421;51.600;5.718;2022-12-18T03:52:38;214679.59;;;-6.82
68440;BMP180;55421;51.600;5.718;2022-12-18T03:55:08;214705.41;;;-6.80
68440;BMP180;55421;51.600;5.718;2022-12-18T03:57:37;214726.20;;;-6.80
68440;BMP180;55421;51.600;5.718;2022-12-18T04:00:13;214722.59;;;-6.80
68440;BMP180;55421;51.600;5.718;2022-12-18T04:02:51;214696.20;;;-6.80
68440;BMP180;55421;51.600;5.718;2022-12-18T04:05:21;214655.59;;;-6.90
68440;BMP180;55421;51.600;5.718;2022-12-18T04:07:50;214634.00;;;-6.90
68440;BMP180;55421;51.600;5.718;2022-12-18T04:10:18;214595.20;;;-7.00
68440;BMP180;55421;51.600;5.718;2022-12-18T04:12:46;214577.59;;;-7.00
68440;BMP180;55421;51.600;5.718;2022-12-18T04:15:13;214583.20;;;-7.00
68440;BMP180;55421;51.600;5.718;2022-12-18T04:17:48;214600.00;;;-7.00
68440;BMP180;55421;51.600;5.718;2022-12-18T04:20:16;214634.00;;;-6.90
68440;BMP180;55421;51.600;5.718;2022-12-18T04:22:43;214640.80;;;-6.90
68440;BMP180;55421;51.600;5.718;2022-12-18T04:25:10;214651.59;;;-6.90
68440;BMP180;55421;51.600;5.718;2022-12-18T04:27:36;214649.20;;;-6.90
68440;BMP180;55421;51.600;5.718;2022-12-18T04:30:03;214647.59;;;-6.90
68440;BMP180;55421;51.600;5.718;2022-12-18T04:32:30;214643.59;;;-6.90
68440;BMP180;55421;51.600;5.718;2022-12-18T04:34:56;214658.80;;;-6.90
68440;BMP180;55421;51.600;5.718;2022-12-18T04:37:23;214696.20;;;-6.80
68440;BMP180;55421;51.600;5.718;2022-12-18T04:39:49;214712.59;;;-6.80
68440;BMP180;55421;51.600;5.718;2022-12-18T04:42:16;214725.00;;;-6.80
68440;BMP180;55421;51.600;5.718;2022-12-18T04:44:43;214717.00;;;-6.80
68440;BMP180;55421;51.600;5.718;2022-12-18T04:47:09;214708.20;;;-6.80
68440;BMP180;55421;51.600;5.718;2022-12-18T04:49:37;214708.20;;;-6.80
68440;BMP180;55421;51.600;5.718;2022-12-18T04:52:04;214711.00;;;-6.80
68440;BMP180;55421;51.600;5.718;2022-12-18T04:54:30;214725.41;;;-6.80
68440;BMP180;55421;51.600;5.718;2022-12-18T04:56:57;214726.20;;;-6.78
68440;BMP180;55421;51.600;5.718;2022-12-18T04:59:23;214731.41;;;-6.72
68440;BMP180;55421;51.600;5.718;2022-12-18T05:01:50;214705.41;;;-6.80
68440;BMP180;55421;51.600;5.718;2022-12-18T05:04:16;214680.80;;;-6.80
68440;BMP180;55421;51.600;5.718;2022-12-18T05:06:43;214669.41;;;-6.88
68440;BMP180;55421;51.600;5.718;2022-12-18T05:09:09;214654.41;;;-6.90
68440;BMP180;55421;51.600;5.718;2022-12-18T05:11:36;214654.00;;;-6.90
68440;BMP180;55421;51.600;5.718;2022-12-18T05:14:02;214675.59;;;-6.84
68440;BMP180;55421;51.600;5.718;2022-12-18T05:16:29;214686.20;;;-6.80
68440;BMP180;55421;51.600;5.718;2022-12-18T05:18:55;214692.20;;;-6.80
68440;BMP180;55421;51.600;5.718;2022-12-18T05:21:22;214682.00;;;-6.80
68440;BMP180;55421;51.600;5.718;2022-12-18T05:23:48;214687.00;;;-6.80
68440;BMP180;55421;51.600;5.718;2022-12-18T05:26:17;214682.20;;;-6.80
68440;BMP180;55421;51.600;5.718;2022-12-18T05:28:45;214675.59;;;-6.86
68440;BMP180;55421;51.600;5.718;2022-12-18T05:31:13;214654.41;;;-6.90
68440;BMP180;55421;51.600;5.718;2022-12-18T05:33:40;214651.59;;;-6.90
68440;BMP180;55421;51.600;5.718;2022-12-18T05:36:08;214656.80;;;-6.90
68440;BMP180;55421;51.600;5.718;2022-12-18T05:38:38;214672.00;;;-6.84
68440;BMP180;55421;51.600;5.718;2022-12-18T05:41:05;214683.41;;;-6.82
68440;BMP180;55421;51.600;5.718;2022-12-18T05:43:35;214675.59;;;-6.84
68440;BMP180;55421;51.600;5.718;2022-12-18T05:46:11;214656.80;;;-6.90
68440;BMP180;55421;51.600;5.718;2022-12-18T05:48:39;214634.00;;;-6.90
68440;BMP180;55421;51.600;5.718;2022-12-18T05:51:15;214602.80;;;-7.00
68440;BMP180;55421;51.600;5.718;2022-12-18T05:53:43;214606.00;;;-6.98
68440;BMP180;55421;51.600;5.718;2022-12-18T05:56:15;214626.00;;;-6.92
68440;BMP180;55421;51.600;5.718;2022-12-18T05:58:42;214631.20;;;-6.90
68440;BMP180;55421;51.600;5.718;2022-12-18T06:01:21;214638.00;;;-6.90
68440;BMP180;55421;51.600;5.718;2022-12-18T06:03:48;214636.80;;;-6.90
68440;BMP180;55421;51.600;5.718;2022-12-18T06:06:25;214620.41;;;-6.92
68440;BMP180;55421;51.600;5.718;2022-12-18T06:08:53;214634.00;;;-6.90
68440;BMP180;55421;51.600;5.718;2022-12-18T06:11:25;214634.00;;;-6.90
68440;BMP180;55421;51.600;5.718;2022-12-18T06:13:54;214640.41;;;-6.90
68440;BMP180;55421;51.600;5.718;2022-12-18T06:16:21;214635.20;;;-6.90
68440;BMP180;55421;51.600;5.718;2022-12-18T06:18:48;214634.00;;;-6.90
68440;BMP180;55421;51.600;5.718;2022-12-18T06:21:14;214628.41;;;-6.90
68440;BMP180;55421;51.600;5.718;2022-12-18T06:23:41;214616.80;;;-6.96
68440;BMP180;55421;51.600;5.718;2022-12-18T06:26:11;214634.00;;;-6.92
68440;BMP180;55421;51.600;5.718;2022-12-18T06:28:38;214642.00;;;-6.90
68440;BMP180;55421;51.600;5.718;2022-12-18T06:31:06;214668.00;;;-6.88
68440;BMP180;55421;51.600;5.718;2022-12-18T06:33:34;214677.00;;;-6.80
68440;BMP180;55421;51.600;5.718;2022-12-18T06:36:05;214683.80;;;-6.80
68440;BMP180;55421;51.600;5.718;2022-12-18T06:38:34;214671.80;;;-6.84
68440;BMP180;55421;51.600;5.718;2022-12-18T06:41:10;214658.41;;;-6.90
68440;BMP180;55421;51.600;5.718;2022-12-18T06:43:37;214660.00;;;-6.90
68440;BMP180;55421;51.600;5.718;2022-12-18T06:46:05;214674.41;;;-6.90
68440;BMP180;55421;51.600;5.718;2022-12-18T06:48:32;214697.41;;;-6.80
68440;BMP180;55421;51.600;5.718;2022-12-18T06:50:59;214712.59;;;-6.80
68440;BMP180;55421;51.600;5.718;2022-12-18T06:53:26;214715.00;;;-6.80
68440;BMP180;55421;51.600;5.718;2022-12-18T06:56:01;214718.20;;;-6.80
68440;BMP180;55421;51.600;5.718;2022-12-18T06:58:28;214703.00;;;-6.80
68440;BMP180;55421;51.600;5.718;2022-12-18T07:01:02;214699.00;;;-6.80
68440;BMP180;55421;51.600;5.718;2022-12-18T07:03:30;214690.20;;;-6.80
68440;BMP180;55421;51.600;5.718;2022-12-18T07:05:57;214685.00;;;-6.80
68440;BMP180;55421;51.600;5.718;2022-12-18T07:08:24;214701.00;;;-6.80
68440;BMP180;55421;51.600;5.718;2022-12-18T07:10:51;214735.41;;;-6.72
68440;BMP180;55421;51.600;5.718;2022-12-18T07:13:18;214759.80;;;-6.70
68440;BMP180;55421;51.600;5.718;2022-12-18T07:15:44;214788.41;;;-6.68
68440;BMP180;55421;51.600;5.718;2022-12-18T07:18:11;214796.80;;;-6.62
68440;BMP180;55421;51.600;5.718;2022-12-18T07:20:37;214791.59;;;-6.62
68440;BMP180;55421;51.600;5.718;2022-12-18T07:23:04;214785.59;;;-6.68
68440;BMP180;55421;51.600;5.718;2022-12-18T07:25:35;214768.20;;;-6.70
68440;BMP180;55421;51.600;5.718;2022-12-18T07:28:03;214753.80;;;-6.70
68440;BMP180;55421;51.600;5.718;2022-12-18T07:30:30;214735.41;;;-6.70
68440;BMP180;55421;51.600;5.718;2022-12-18T07:32:57;214745.00;;;-6.70
68440;BMP180;55421;51.600;5.718;2022-12-18T07:35:23;214760.59;;;-6.70
68440;BMP180;55421;51.600;5.718;2022-12-18T07:37:50;214797.20;;;-6.60
68440;BMP180;55421;51.600;5.718;2022-12-18T07:40:16;214828.20;;;-6.60
68440;BMP180;55421;51.600;5.718;2022-12-18T07:42:43;214844.20;;;-6.52
68440;BMP180;55421;51.600;5.718;2022-12-18T07:45:09;214843.00;;;-6.50
68440;BMP180;55421;51.600;5.718;2022-12-18T07:47:37;214841.41;;;-6.52
68440;BMP180;55421;51.600;5.718;2022-12-18T07:50:05;214839.80;;;-6.54
68440;BMP180;55421;51.600;5.718;2022-12-18T07:52:31;214841.41;;;-6.54
68440;BMP180;55421;51.600;5.718;2022-12-18T07:54:58;214867.80;;;-6.50
68440;BMP180;55421;51.600;5.718;2022-12-18T07:57:24;214900.59;;;-6.44
68440;BMP180;55421;51.600;5.718;2022-12-18T07:59:51;214941.41;;;-6.40
68440;BMP180;55421;51.600;5.718;2022-12-18T08:02:17;214972.41;;;-6.30
68440;BMP180;55421;51.600;5.718;2022-12-18T08:04:44;215004.41;;;-6.30
68440;BMP180;55421;51.600;5.718;2022-12-18T08:07:13;215019.20;;;-6.20
68440;BMP180;55421;51.600;5.718;2022-12-18T08:09:40;215044.20;;;-6.20
68440;BMP180;55421;51.600;5.718;2022-12-18T08:12:06;215057.80;;;-6.20
68440;BMP180;55421;51.600;5.718;2022-12-18T08:14:33;215104.80;;;-6.10
68440;BMP180;55421;51.600;5.718;2022-12-18T08:16:59;215161.59;;;-6.00
68440;BMP180;55421;51.600;5.718;2022-12-18T08:19:26;215202.41;;;-5.90
68440;BMP180;55421;51.600;5.718;2022-12-18T08:21:52;215228.59;;;-5.86
68440;BMP180;55421;51.600;5.718;2022-12-18T08:24:19;215257.00;;;-5.80
68440;BMP180;55421;51.600;5.718;2022-12-18T08:26:45;215272.20;;;-5.80
68440;BMP180;55421;51.600;5.718;2022-12-18T08:29:12;215293.80;;;-5.74
68440;BMP180;55421;51.600;5.718;2022-12-18T08:31:39;215322.80;;;-5.70
68440;BMP180;55421;51.600;5.718;2022-12-18T08:34:05;215366.20;;;-5.60
68440;BMP180;55421;51.600;5.718;2022-12-18T08:36:32;215412.20;;;-5.50
68440;BMP180;55421;51.600;5.718;2022-12-18T08:38:58;215459.00;;;-5.46
68440;BMP180;55421;51.600;5.718;2022-12-18T08:41:25;215479.80;;;-5.40
68440;BMP180;55421;51.600;5.718;2022-12-18T08:43:52;215489.20;;;-5.40
68440;BMP180;55421;51.600;5.718;2022-12-18T08:46:40;215508.00;;;-5.40
68440;BMP180;55421;51.600;5.718;2022-12-18T08:49:09;215508.80;;;-5.40
68440;BMP180;55421;51.600;5.718;2022-12-18T08:51:36;215510.41;;;-5.36
68440;BMP180;55421;51.600;5.718;2022-12-18T08:54:05;215516.41;;;-5.32
68440;BMP180;55421;51.600;5.718;2022-12-18T08:56:31;215547.41;;;-5.30
68440;BMP180;55421;51.600;5.718;2022-12-18T08:58:58;215583.41;;;-5.20
68440;BMP180;55421;51.600;5.718;2022-12-18T09:01:25;215609.00;;;-5.20
68440;BMP180;55421;51.600;5.718;2022-12-18T09:03:51;215629.20;;;-5.10
68440;BMP180;55421;51.600;5.718;2022-12-18T09:06:22;215653.20;;;-5.10
68440;BMP180;55421;51.600;5.718;2022-12-18T09:08:49;215681.20;;;-5.02
68440;BMP180;55421;51.600;5.718;2022-12-18T09:11:23;215701.59;;;-5.00
68440;BMP180;55421;51.600;5.718;2022-12-18T09:13:50;215709.20;;;-5.00
68440;BMP180;55421;51.600;5.718;2022-12-18T09:16:18;215734.41;;;-4.96
68440;BMP180;55421;51.600;5.718;2022-12-18T09:18:46;215775.80;;;-4.90
68440;BMP180;55421;51.600;5.718;2022-12-18T09:21:19;215819.59;;;-4.80
68440;BMP180;55421;51.600;5.718;2022-12-18T09:23:51;215855.20;;;-4.72
68440;BMP180;55421;51.600;5.718;2022-12-18T09:26:20;215872.41;;;-4.70
68440;BMP180;55421;51.600;5.718;2022-12-18T09:28:47;215884.20;;;-4.70
68440;BMP180;55421;51.600;5.718;2022-12-18T09:31:13;215903.00;;;-4.66
68440;BMP180;55421;51.600;5.718;2022-12-18T09:33:40;215913.80;;;-4.60
68440;BMP180;55421;51.600;5.718;2022-12-18T09:36:11;215935.41;;;-4.60
68440;BMP180;55421;51.600;5.718;2022-12-18T09:38:38;215975.80;;;-4.50
68440;BMP180;55421;51.600;5.718;2022-12-18T09:44:09;215235.80;;;-4.40
68440;BMP180;55421;51.600;5.718;2022-12-18T09:46:44;211994.59;;;-4.30
68440;BMP180;55421;51.600;5.718;2022-12-18T09:49:18;212005.41;;;-4.30
68440;BMP180;55421;51.600;5.718;2022-12-18T09:51:59;212029.80;;;-4.28
68440;BMP180;55421;51.600;5.718;2022-12-18T09:54:36;212045.80;;;-4.20
68440;BMP180;55421;51.600;5.718;2022-12-18T09:57:04;212056.00;;;-4.20
68440;BMP180;55421;51.600;5.718;2022-12-18T09:59:38;212090.00;;;-4.18
68440;BMP180;55421;51.600;5.718;2022-12-18T10:02:30;212143.59;;;-4.10
68440;BMP180;55421;51.600;5.718;2022-12-18T10:05:04;212182.41;;;-4.00
68440;BMP180;55421;51.600;5.718;2022-12-18T10:07:49;212206.59;;;-3.92
68440;BMP180;55421;51.600;5.718;2022-12-18T10:10:36;212236.59;;;-3.90
68440;BMP180;55421;51.600;5.718;2022-12-18T10:13:33;212260.00;;;-3.82
68440;BMP180;55421;51.600;5.718;2022-12-18T10:16:25;212281.59;;;-3.80
68440;BMP180;55421;51.600;5.718;2022-12-18T10:24:56;212436.20;;;-3.50
68440;BMP180;55421;51.600;5.718;2022-12-18T10:27:27;212472.41;;;-3.50
68440;BMP180;55421;51.600;5.718;2022-12-18T10:29:54;212504.20;;;-3.40
68440;BMP180;55421;51.600;5.718;2022-12-18T10:32:27;212520.59;;;-3.40
68440;BMP180;55421;51.600;5.718;2022-12-18T10:34:57;212537.00;;;-3.32
68440;BMP180;55421;51.600;5.718;2022-12-18T10:37:27;212547.41;;;-3.30
68440;BMP180;55421;51.600;5.718;2022-12-18T10:40:10;212573.41;;;-3.30
68440;BMP180;55421;51.600;5.718;2022-12-18T10:42:38;212606.00;;;-3.20
68440;BMP180;55421;51.600;5.718;2022-12-18T10:45:16;212628.00;;;-3.20
68440;BMP180;55421;51.600;5.718;2022-12-18T10:47:50;212655.20;;;-3.12
68440;BMP180;55421;51.600;5.718;2022-12-18T10:53:00;212679.59;;;-3.10
68440;BMP180;55421;51.600;5.718;2022-12-18T10:55:39;212709.59;;;-3.00
68440;BMP180;55421;51.600;5.718;2022-12-18T10:58:27;212764.00;;;-2.94
68440;BMP180;55421;51.600;5.718;2022-12-18T11:01:17;212808.80;;;-2.90
68440;BMP180;55421;51.600;5.718;2022-12-18T11:04:01;212838.41;;;-2.80
68440;BMP180;55421;51.600;5.718;2022-12-18T11:06:51;212858.80;;;-2.80
68440;BMP180;55421;51.600;5.718;2022-12-18T11:09:22;212861.41;;;-2.80
68440;BMP180;55421;51.600;5.718;2022-12-18T11:11:52;212862.80;;;-2.80
68440;BMP180;55421;51.600;5.718;2022-12-18T11:14:32;212871.80;;;-2.76
68440;BMP180;55421;51.600;5.718;2022-12-18T11:17:01;212900.59;;;-2.70
68440;BMP180;55421;51.600;5.718;2022-12-18T11:19:40;212929.00;;;-2.62
68440;BMP180;55421;51.600;5.718;2022-12-18T11:27:23;212971.41;;;-2.60
68440;BMP180;55421;51.600;5.718;2022-12-18T11:29:51;212971.41;;;-2.60
68440;BMP180;55421;51.600;5.718;2022-12-18T11:32:30;212981.41;;;-2.60
68440;BMP180;55421;51.600;5.718;2022-12-18T11:35:21;213014.59;;;-2.50
68440;BMP180;55421;51.600;5.718;2022-12-18T11:37:58;213063.00;;;-2.40
68440;BMP180;55421;51.600;5.718;2022-12-18T11:40:35;213089.41;;;-2.40
68440;BMP180;55421;51.600;5.718;2022-12-18T11:43:31;213108.59;;;-2.30
68440;BMP180;55421;51.600;5.718;2022-12-18T11:46:05;213112.59;;;-2.30
68440;BMP180;55421;51.600;5.718;2022-12-18T11:48:41;213121.80;;;-2.30
68440;BMP180;55421;51.600;5.718;2022-12-18T11:51:22;213127.80;;;-2.30
68440;BMP180;55421;51.600;5.718;2022-12-18T11:53:51;213129.00;;;-2.30
68440;BMP180;55421;51.600;5.718;2022-12-18T11:56:33;213137.00;;;-2.30
68440;BMP180;55421;51.600;5.718;2022-12-18T11:59:33;213169.20;;;-2.20
68440;BMP180;55421;51.600;5.718;2022-12-18T12:02:46;213207.20;;;-2.12
68440;BMP180;55421;51.600;5.718;2022-12-18T12:08:37;213254.00;;;-2.10
68440;BMP180;55421;51.600;5.718;2022-12-18T12:17:42;213244.80;;;-2.10
68440;BMP180;55421;51.600;5.718;2022-12-18T12:20:22;213262.80;;;-2.08
68440;BMP180;55421;51.600;5.718;2022-12-18T12:23:14;213296.41;;;-2.00
68440;BMP180;55421;51.600;5.718;2022-12-18T12:26:04;213316.00;;;-1.98
68440;BMP180;55421;51.600;5.718;2022-12-18T12:29:01;213327.20;;;-1.90
68440;BMP180;55421;51.600;5.718;2022-12-18T12:40:27;213346.00;;;-1.90
68440;BMP180;55421;51.600;5.718;2022-12-18T12:43:07;213382.00;;;-1.82
68440;BMP180;55421;51.600;5.718;2022-12-18T12:46:11;213413.41;;;-1.80
68440;BMP180;55421;51.600;5.718;2022-12-18T12:48:42;213444.20;;;-1.70
68440;BMP180;55421;51.600;5.718;2022-12-18T12:51:16;213459.00;;;-1.70
68440;BMP180;55421;51.600;5.718;2022-12-18T12:53:44;213462.59;;;-1.70
68440;BMP180;55421;51.600;5.718;2022-12-18T12:56:14;213459.00;;;-1.70
68440;BMP180;55421;51.600;5.718;2022-12-18T12:59:22;213449.80;;;-1.70
68440;BMP180;55421;51.600;5.718;2022-12-18T13:02:46;213433.80;;;-1.72
68440;BMP180;55421;51.600;5.718;2022-12-18T13:05:39;213429.00;;;-1.78
68440;BMP180;55421;51.600;5.718;2022-12-18T13:08:25;213448.20;;;-1.70
68440;BMP180;55421;51.600;5.718;2022-12-18T13:10:54;213467.00;;;-1.70
68440;BMP180;55421;51.600;5.718;2022-12-18T13:16:20;213474.59;;;-1.70
68440;BMP180;55421;51.600;5.718;2022-12-18T13:18:55;213476.20;;;-1.70
68440;BMP180;55421;51.600;5.718;2022-12-18T13:21:31;213468.20;;;-1.70
68440;BMP180;55421;51.600;5.718;2022-12-18T13:24:28;213458.59;;;-1.70
68440;BMP180;55421;51.600;5.718;2022-12-18T13:26:56;213455.80;;;-1.70
68440;BMP180;55421;51.600;5.718;2022-12-18T13:29:49;213469.41;;;-1.70
68440;BMP180;55421;51.600;5.718;2022-12-18T13:32:24;213501.41;;;-1.60
68440;BMP180;55421;51.600;5.718;2022-12-18T13:37:54;213538.80;;;-1.60
68440;BMP180;55421;51.600;5.718;2022-12-18T13:43:23;213529.59;;;-1.60
68440;BMP180;55421;51.600;5.718;2022-12-18T13:46:02;213520.00;;;-1.60
68440;BMP180;55421;51.600;5.718;2022-12-18T13:48:33;213504.20;;;-1.60
68440;BMP180;55421;51.600;5.718;2022-12-18T13:51:06;213493.00;;;-1.62
68440;BMP180;55421;51.600;5.718;2022-12-18T13:53:49;213492.59;;;-1.60
68440;BMP180;55421;51.600;5.718;2022-12-18T13:56:24;213523.00;;;-1.60
68440;BMP180;55421;51.600;5.718;2022-12-18T14:01:58;213566.20;;;-1.50
68440;BMP180;55421;51.600;5.718;2022-12-18T14:04:31;213570.59;;;-1.50
68440;BMP180;55421;51.600;5.718;2022-12-18T14:07:07;213573.41;;;-1.50
68440;BMP180;55421;51.600;5.718;2022-12-18T14:09:42;213571.80;;;-1.50
68440;BMP180;55421;51.600;5.718;2022-12-18T14:12:26;213569.00;;;-1.50
68440;BMP180;55421;51.600;5.718;2022-12-18T14:18:01;213569.00;;;-1.50
68440;BMP180;55421;51.600;5.718;2022-12-18T14:20:33;213591.41;;;-1.48
68440;BMP180;55421;51.600;5.718;2022-12-18T14:23:00;213613.80;;;-1.40
68440;BMP180;55421;51.600;5.718;2022-12-18T14:25:29;213627.00;;;-1.40
68440;BMP180;55421;51.600;5.718;2022-12-18T14:28:14;213632.59;;;-1.40
68440;BMP180;55421;51.600;5.718;2022-12-18T14:30:44;213625.41;;;-1.40
68440;BMP180;55421;51.600;5.718;2022-12-18T14:33:17;213617.41;;;-1.40
68440;BMP180;55421;51.600;5.718;2022-12-18T14:36:01;213605.80;;;-1.42
68440;BMP180;55421;51.600;5.718;2022-12-18T14:38:39;213587.41;;;-1.50
68440;BMP180;55421;51.600;5.718;2022-12-18T14:41:12;213589.41;;;-1.50
68440;BMP180;55421;51.600;5.718;2022-12-18T14:43:42;213609.41;;;-1.40
68440;BMP180;55421;51.600;5.718;2022-12-18T14:48:56;213613.41;;;-1.40
68440;BMP180;55421;51.600;5.718;2022-12-18T14:51:28;213609.80;;;-1.40
68440;BMP180;55421;51.600;5.718;2022-12-18T14:54:05;213597.41;;;-1.50
68440;BMP180;55421;51.600;5.718;2022-12-18T14:57:00;213583.00;;;-1.50
68440;BMP180;55421;51.600;5.718;2022-12-18T14:59:28;213571.80;;;-1.50
68440;BMP180;55421;51.600;5.718;2022-12-18T15:04:46;213545.59;;;-1.60
68440;BMP180;55421;51.600;5.718;2022-12-18T15:07:22;213556.20;;;-1.50
68440;BMP180;55421;51.600;5.718;2022-12-18T15:12:46;213584.59;;;-1.50
68440;BMP180;55421;51.600;5.718;2022-12-18T15:18:35;213580.20;;;-1.50
68440;BMP180;55421;51.600;5.718;2022-12-18T15:21:10;213563.41;;;-1.50
68440;BMP180;55421;51.600;5.718;2022-12-18T15:23:50;213533.41;;;-1.60
68440;BMP180;55421;51.600;5.718;2022-12-18T15:26:20;213512.20;;;-1.60
68440;BMP180;55421;51.600;5.718;2022-12-18T15:28:54;213482.20;;;-1.70
68440;BMP180;55421;51.600;5.718;2022-12-18T15:31:32;213458.59;;;-1.70
68440;BMP180;55421;51.600;5.718;2022-12-18T15:34:12;213440.20;;;-1.72
68440;BMP180;55421;51.600;5.718;2022-12-18T15:36:40;213418.59;;;-1.80
68440;BMP180;55421;51.600;5.718;2022-12-18T15:39:11;213399.20;;;-1.80
68440;BMP180;55421;51.600;5.718;2022-12-18T15:41:38;213394.00;;;-1.80
68440;BMP180;55421;51.600;5.718;2022-12-18T15:44:24;213402.41;;;-1.80